Time;durP1;ratioP1;P1;durP2;ratioP2;P2;SDS_P1;SDS_P2;PMS_P1;PMS_P2;Temp;Humidity;BMP_temperature;BMP_pressure;BME280_temperature;BME280_humidity;BME280_pressure;Samples;Min_cycle;Max_cycle;Signal;HPM_P1;HPM_P2
2022/08/12 00:44:19;;;;;;;;;;;21.00;49.40;;;;;;5021774;28;19944;-66
2022/08/12 00:46:50;;;;;;;;;;;20.90;49.50;;;;;;5024727;28;19929;-65
2022/08/12 00:49:17;;;;;;;;;;;20.90;49.70;;;;;;5018950;28;19930;-65
2022/08/12 00:54:30;;;;;;;;;;;20.80;50.00;;;;;;5025009;28;19925;-64
2022/08/12 00:56:58;;;;;;;;;;;20.70;50.30;;;;;;5018814;28;19931;-65
2022/08/12 00:59:25;;;;;;;;;;;20.70;50.40;;;;;;5020764;28;20302;-67
2022/08/12 01:01:54;;;;;;;;;;;20.60;50.70;;;;;;5014458;28;19940;-66
2022/08/12 01:12:41;;;;;;;;;;;20.50;51.20;;;;;;5013736;28;19925;-66
2022/08/12 01:15:09;;;;;;;;;;;20.50;51.20;;;;;;5012240;28;19940;-65
2022/08/12 01:17:38;;;;;;;;;;;20.40;51.40;;;;;;5017113;28;19932;-66
2022/08/12 01:20:06;;;;;;;;;;;20.40;51.60;;;;;;5027512;28;19926;-67
2022/08/12 01:22:37;;;;;;;;;;;20.30;51.50;;;;;;5024038;28;19932;-65
2022/08/12 01:25:07;;;;;;;;;;;20.30;51.80;;;;;;5021124;28;19975;-68
2022/08/12 01:27:34;;;;;;;;;;;20.20;51.90;;;;;;5023499;28;19929;-67
2022/08/12 01:30:03;;;;;;;;;;;20.20;52.00;;;;;;5025168;28;19933;-65
2022/08/12 01:32:33;;;;;;;;;;;20.10;52.00;;;;;;5016390;28;20385;-65
2022/08/12 01:35:04;;;;;;;;;;;20.10;52.20;;;;;;5024402;28;19925;-65
2022/08/12 01:37:35;;;;;;;;;;;20.10;52.30;;;;;;5025409;28;20026;-66
2022/08/12 01:40:02;;;;;;;;;;;20.00;52.50;;;;;;5020887;28;19925;-65
2022/08/12 01:42:33;;;;;;;;;;;19.90;52.70;;;;;;5019246;28;20222;-67
2022/08/12 01:45:01;;;;;;;;;;;20.00;52.80;;;;;;5026988;28;19986;-66
2022/08/12 01:47:33;;;;;;;;;;;19.90;52.90;;;;;;5020308;28;20590;-66
2022/08/12 01:50:07;;;;;;;;;;;19.90;52.90;;;;;;5017129;28;20111;-67
2022/08/12 01:52:37;;;;;;;;;;;19.80;53.00;;;;;;5016477;28;19976;-66
2022/08/12 01:55:05;;;;;;;;;;;19.80;53.00;;;;;;5019791;28;19929;-68
2022/08/12 01:57:38;;;;;;;;;;;19.80;53.00;;;;;;5019480;28;19968;-65
2022/08/12 02:00:06;;;;;;;;;;;19.80;53.10;;;;;;5016282;28;20329;-65
2022/08/12 02:02:40;;;;;;;;;;;19.80;53.20;;;;;;5024129;28;19971;-66
2022/08/12 02:13:54;;;;;;;;;;;19.60;53.90;;;;;;5020688;28;19937;-65
2022/08/12 02:16:29;;;;;;;;;;;19.60;54.00;;;;;;5021683;28;19933;-65
2022/08/12 02:19:04;;;;;;;;;;;19.60;54.10;;;;;;5025234;28;19929;-66
2022/08/12 02:21:40;;;;;;;;;;;19.50;54.30;;;;;;5025739;28;19925;-66
2022/08/12 02:24:09;;;;;;;;;;;19.50;54.60;;;;;;5026998;28;19925;-67
2022/08/12 02:26:39;;;;;;;;;;;19.40;54.60;;;;;;5016966;28;19926;-67
2022/08/12 02:29:07;;;;;;;;;;;19.40;54.80;;;;;;5027551;28;20024;-68
2022/08/12 02:31:34;;;;;;;;;;;19.40;54.90;;;;;;5020398;28;19951;-66
2022/08/12 02:34:02;;;;;;;;;;;19.30;55.00;;;;;;5021706;28;20374;-65
2022/08/12 02:36:31;;;;;;;;;;;19.20;55.10;;;;;;5009559;28;19925;-66
2022/08/12 02:38:58;;;;;;;;;;;19.20;55.20;;;;;;5018958;28;20012;-66
2022/08/12 02:41:26;;;;;;;;;;;19.20;55.30;;;;;;5023332;28;20044;-67
2022/08/12 02:43:55;;;;;;;;;;;19.20;55.40;;;;;;5019431;28;19925;-65
2022/08/12 02:46:27;;;;;;;;;;;19.10;55.50;;;;;;5024169;28;20470;-67
2022/08/12 02:48:57;;;;;;;;;;;19.10;55.70;;;;;;5020327;28;19932;-66
2022/08/12 02:51:25;;;;;;;;;;;19.10;55.70;;;;;;5019825;28;19929;-66
2022/08/12 02:53:52;;;;;;;;;;;19.00;55.70;;;;;;5030337;28;19933;-66
2022/08/12 02:56:19;;;;;;;;;;;19.10;55.80;;;;;;5012549;28;20391;-66
2022/08/12 02:58:46;;;;;;;;;;;19.10;55.70;;;;;;5021374;28;19995;-65
2022/08/12 03:01:14;;;;;;;;;;;19.00;55.90;;;;;;5021978;28;19932;-65
2022/08/12 03:03:42;;;;;;;;;;;18.90;55.80;;;;;;5016670;28;19928;-65
2022/08/12 03:06:12;;;;;;;;;;;18.90;56.10;;;;;;5020540;28;19933;-65
2022/08/12 03:08:42;;;;;;;;;;;18.90;56.00;;;;;;5020257;28;19988;-66
2022/08/12 03:11:13;;;;;;;;;;;18.90;56.10;;;;;;5020669;28;19929;-66
2022/08/12 03:13:41;;;;;;;;;;;18.80;56.20;;;;;;5021016;28;20379;-66
2022/08/12 03:16:08;;;;;;;;;;;18.80;56.20;;;;;;5021429;28;20294;-65
2022/08/12 03:18:35;;;;;;;;;;;18.70;56.30;;;;;;5026574;28;19925;-66
2022/08/12 03:21:03;;;;;;;;;;;18.70;56.40;;;;;;5028613;28;19925;-66
2022/08/12 03:23:30;;;;;;;;;;;18.70;56.50;;;;;;5026573;28;19925;-66
2022/08/12 03:25:57;;;;;;;;;;;18.70;56.50;;;;;;5026531;28;19933;-66
2022/08/12 03:31:10;;;;;;;;;;;18.60;56.30;;;;;;5025471;28;20015;-65
2022/08/12 03:33:37;;;;;;;;;;;18.60;56.40;;;;;;5018096;28;19932;-65
2022/08/12 03:36:06;;;;;;;;;;;18.60;56.50;;;;;;5028859;28;19932;-65
2022/08/12 03:38:36;;;;;;;;;;;18.60;56.50;;;;;;5022895;28;19933;-67
2022/08/12 04:00:24;;;;;;;;;;;18.50;56.80;;;;;;5024615;28;19933;-64
2022/08/12 04:02:57;;;;;;;;;;;18.50;56.90;;;;;;5023132;28;20052;-67
2022/08/12 04:05:24;;;;;;;;;;;18.50;56.90;;;;;;5028648;28;19944;-64
2022/08/12 04:07:52;;;;;;;;;;;18.40;57.00;;;;;;5024721;28;19929;-65
2022/08/12 04:10:19;;;;;;;;;;;18.40;57.10;;;;;;5027049;28;20318;-65
2022/08/12 04:15:40;;;;;;;;;;;18.30;57.40;;;;;;5023790;28;19933;-66
2022/08/12 04:18:06;;;;;;;;;;;18.30;57.70;;;;;;5025660;28;20394;-66
2022/08/12 04:20:33;;;;;;;;;;;18.30;57.80;;;;;;5023061;28;20016;-66
2022/08/12 04:23:03;;;;;;;;;;;18.20;57.90;;;;;;5025871;28;19936;-66
2022/08/12 04:25:31;;;;;;;;;;;18.20;58.00;;;;;;5022623;28;20306;-66
2022/08/12 04:27:58;;;;;;;;;;;18.20;58.10;;;;;;5020089;28;20161;-66
2022/08/12 04:30:24;;;;;;;;;;;18.20;58.10;;;;;;5020105;28;19949;-66
2022/08/12 04:32:51;;;;;;;;;;;18.10;58.20;;;;;;5011483;28;19929;-66
2022/08/12 04:35:18;;;;;;;;;;;18.10;58.30;;;;;;5025497;28;20335;-66
2022/08/12 04:37:52;;;;;;;;;;;18.10;58.50;;;;;;5023043;28;20398;-66
2022/08/12 04:40:20;;;;;;;;;;;18.10;58.80;;;;;;5025840;28;19924;-67
2022/08/12 04:42:47;;;;;;;;;;;18.10;58.80;;;;;;5027805;28;19932;-67
2022/08/12 04:45:14;;;;;;;;;;;18.10;58.80;;;;;;5032726;28;19925;-65
2022/08/12 04:47:41;;;;;;;;;;;18.10;58.80;;;;;;5030767;28;19976;-64
2022/08/12 04:50:08;;;;;;;;;;;18.00;59.00;;;;;;5020823;28;19925;-66
2022/08/12 04:52:35;;;;;;;;;;;18.00;59.30;;;;;;5022287;28;19949;-66
2022/08/12 04:55:02;;;;;;;;;;;18.00;59.40;;;;;;5026017;28;19933;-67
2022/08/12 04:57:30;;;;;;;;;;;18.00;59.60;;;;;;5023928;28;20020;-65
2022/08/12 04:59:57;;;;;;;;;;;18.00;59.60;;;;;;5021136;28;19925;-65
2022/08/12 05:02:25;;;;;;;;;;;18.10;59.70;;;;;;5023033;28;19925;-67
2022/08/12 05:04:54;;;;;;;;;;;18.00;59.80;;;;;;5024044;28;20478;-66
2022/08/12 05:07:22;;;;;;;;;;;18.00;59.80;;;;;;5021735;28;19932;-66
2022/08/12 05:09:49;;;;;;;;;;;18.10;59.60;;;;;;5022651;28;20386;-67
2022/08/12 05:12:18;;;;;;;;;;;18.10;59.50;;;;;;5015622;28;19933;-67
2022/08/12 05:14:47;;;;;;;;;;;18.10;59.40;;;;;;5027225;28;19925;-66
2022/08/12 05:17:13;;;;;;;;;;;18.10;59.60;;;;;;5023138;28;19934;-68
2022/08/12 05:19:41;;;;;;;;;;;18.10;59.50;;;;;;5025487;28;20393;-65
2022/08/12 05:22:08;;;;;;;;;;;18.10;59.40;;;;;;5023480;28;19933;-67
2022/08/12 05:24:35;;;;;;;;;;;18.10;59.40;;;;;;5022841;28;19959;-67
2022/08/12 05:27:02;;;;;;;;;;;18.10;59.30;;;;;;5025560;28;19925;-67
2022/08/12 05:29:29;;;;;;;;;;;18.10;59.40;;;;;;5021465;28;20329;-67
2022/08/12 05:31:57;;;;;;;;;;;18.10;59.40;;;;;;5022015;28;19924;-67
2022/08/12 05:34:27;;;;;;;;;;;18.10;59.40;;;;;;5034239;28;19929;-67
2022/08/12 05:36:54;;;;;;;;;;;18.10;59.40;;;;;;5026921;28;20024;-66
2022/08/12 05:39:21;;;;;;;;;;;18.20;59.40;;;;;;5028493;28;19925;-66
2022/08/12 05:41:47;;;;;;;;;;;18.20;59.50;;;;;;5028183;28;19925;-66
2022/08/12 05:44:15;;;;;;;;;;;18.20;59.60;;;;;;5030657;28;20374;-67
2022/08/12 05:46:42;;;;;;;;;;;18.20;59.50;;;;;;5029519;28;19925;-67
2022/08/12 05:49:10;;;;;;;;;;;18.20;59.40;;;;;;5041071;28;20043;-66
2022/08/12 05:51:38;;;;;;;;;;;18.30;59.50;;;;;;5021843;28;20060;-66
2022/08/12 05:54:05;;;;;;;;;;;18.30;59.50;;;;;;5024014;28;19925;-66
2022/08/12 05:56:33;;;;;;;;;;;18.30;59.50;;;;;;5024139;28;19925;-67
2022/08/12 05:59:00;;;;;;;;;;;18.40;59.40;;;;;;5023781;28;19930;-66
2022/08/12 06:01:29;;;;;;;;;;;18.40;59.30;;;;;;5025090;28;19925;-67
2022/08/12 06:03:55;;;;;;;;;;;18.40;59.30;;;;;;5026495;28;19926;-67
2022/08/12 06:06:23;;;;;;;;;;;18.50;59.20;;;;;;5022975;28;19925;-66
2022/08/12 06:08:52;;;;;;;;;;;18.50;59.10;;;;;;5025667;28;19951;-67
2022/08/12 06:11:19;;;;;;;;;;;18.50;59.10;;;;;;5022385;28;19925;-67
2022/08/12 06:13:46;;;;;;;;;;;18.60;59.10;;;;;;5025015;28;19925;-68
2022/08/12 06:16:14;;;;;;;;;;;18.60;59.20;;;;;;5027482;28;19991;-67
2022/08/12 06:18:41;;;;;;;;;;;18.60;59.10;;;;;;5012547;28;19929;-67
2022/08/12 06:21:08;;;;;;;;;;;18.70;59.00;;;;;;5021206;28;20599;-67
2022/08/12 06:23:36;;;;;;;;;;;18.70;58.90;;;;;;5020893;28;19925;-68
2022/08/12 06:26:04;;;;;;;;;;;18.80;58.60;;;;;;5018655;28;19929;-68
2022/08/12 06:28:33;;;;;;;;;;;18.90;58.40;;;;;;5030062;28;19958;-67
2022/08/12 06:31:02;;;;;;;;;;;18.90;58.10;;;;;;5027363;28;19937;-67
2022/08/12 06:33:29;;;;;;;;;;;19.00;57.90;;;;;;5027999;28;19933;-66
2022/08/12 06:35:56;;;;;;;;;;;19.10;57.60;;;;;;5029567;28;19936;-66
2022/08/12 06:38:23;;;;;;;;;;;19.20;57.10;;;;;;5025685;28;20024;-68
2022/08/12 06:43:38;;;;;;;;;;;19.50;56.80;;;;;;5014208;28;20067;-67
2022/08/12 06:46:05;;;;;;;;;;;19.60;56.30;;;;;;5020266;28;20023;-68
2022/08/12 06:48:32;;;;;;;;;;;19.80;56.20;;;;;;5016143;28;19933;-68
2022/08/12 06:51:00;;;;;;;;;;;19.90;56.40;;;;;;5021119;28;20379;-66
2022/08/12 06:53:27;;;;;;;;;;;20.00;55.90;;;;;;5021708;28;19925;-68
2022/08/12 06:55:56;;;;;;;;;;;20.20;56.00;;;;;;5030856;28;20379;-67
2022/08/12 06:58:23;;;;;;;;;;;20.30;55.60;;;;;;5037638;28;19925;-68
2022/08/12 07:00:50;;;;;;;;;;;20.40;55.40;;;;;;5030186;28;19929;-66
2022/08/12 07:03:20;;;;;;;;;;;20.60;55.50;;;;;;5033301;28;20337;-68
2022/08/12 07:05:47;;;;;;;;;;;20.80;55.20;;;;;;5032536;28;20044;-67
2022/08/12 07:08:15;;;;;;;;;;;20.90;54.70;;;;;;5026978;28;19961;-68
2022/08/12 07:10:44;;;;;;;;;;;21.10;53.90;;;;;;5023935;28;19940;-68
2022/08/12 07:13:12;;;;;;;;;;;21.30;53.20;;;;;;5024158;28;19929;-68
2022/08/12 07:15:42;;;;;;;;;;;21.50;52.70;;;;;;5020250;28;19936;-67
2022/08/12 07:18:12;;;;;;;;;;;21.60;52.30;;;;;;5025248;28;19929;-67
2022/08/12 07:20:40;;;;;;;;;;;21.80;52.30;;;;;;5016966;28;19940;-67
2022/08/12 07:23:07;;;;;;;;;;;22.00;52.10;;;;;;5018591;28;19929;-68
2022/08/12 07:25:34;;;;;;;;;;;22.10;51.10;;;;;;5011422;28;19948;-70
2022/08/12 07:28:02;;;;;;;;;;;22.30;50.80;;;;;;5020141;28;19956;-69
2022/08/12 07:30:33;;;;;;;;;;;22.60;50.60;;;;;;5022150;28;19965;-69
2022/08/12 07:33:03;;;;;;;;;;;22.70;49.30;;;;;;5024054;28;19979;-69
2022/08/12 07:35:31;;;;;;;;;;;22.90;49.10;;;;;;5023565;28;19926;-69
2022/08/12 07:37:59;;;;;;;;;;;23.00;48.20;;;;;;5026479;28;20260;-68
2022/08/12 07:40:27;;;;;;;;;;;23.10;48.40;;;;;;5031823;28;20389;-67
2022/08/12 07:42:53;;;;;;;;;;;23.30;48.50;;;;;;5027027;28;19925;-69
2022/08/12 07:45:20;;;;;;;;;;;23.50;47.80;;;;;;5020795;28;20035;-69
2022/08/12 07:47:50;;;;;;;;;;;23.60;47.60;;;;;;5028582;28;19980;-69
2022/08/12 07:50:17;;;;;;;;;;;23.80;47.20;;;;;;5021823;28;20306;-69
2022/08/12 07:52:46;;;;;;;;;;;23.90;46.50;;;;;;5024277;28;20480;-70
2022/08/12 07:55:14;;;;;;;;;;;24.00;46.70;;;;;;5022321;28;20426;-69
2022/08/12 07:57:58;;;;;;;;;;;24.20;46.70;;;;;;5021036;28;20007;-70
2022/08/12 08:00:25;;;;;;;;;;;24.30;45.40;;;;;;5020427;28;19932;-69
2022/08/12 08:02:54;;;;;;;;;;;24.50;45.40;;;;;;5022471;28;19925;-69
2022/08/12 08:05:21;;;;;;;;;;;24.60;45.00;;;;;;5025822;28;19925;-69
2022/08/12 08:07:48;;;;;;;;;;;24.80;44.30;;;;;;5024978;28;20555;-69
2022/08/12 08:10:15;;;;;;;;;;;24.90;44.00;;;;;;5030734;28;20286;-68
2022/08/12 08:12:53;;;;;;;;;;;25.00;43.50;;;;;;5015706;28;19932;-69
2022/08/12 08:15:20;;;;;;;;;;;25.10;44.20;;;;;;5031657;28;20421;-70
2022/08/12 08:18:01;;;;;;;;;;;25.20;43.20;;;;;;5021805;28;20015;-68
2022/08/12 08:20:30;;;;;;;;;;;25.30;43.00;;;;;;5028640;28;19925;-68
2022/08/12 08:22:57;;;;;;;;;;;25.40;42.20;;;;;;5032427;28;19952;-70
2022/08/12 08:25:29;;;;;;;;;;;25.40;42.40;;;;;;5032438;28;19933;-71
2022/08/12 08:27:57;;;;;;;;;;;25.50;42.10;;;;;;5025695;28;19929;-69
2022/08/12 08:30:24;;;;;;;;;;;25.70;41.60;;;;;;5029968;28;19929;-69
2022/08/12 08:32:50;;;;;;;;;;;25.80;41.70;;;;;;5027359;28;19929;-69
2022/08/12 08:35:23;;;;;;;;;;;25.90;40.90;;;;;;5022669;28;19929;-70
2022/08/12 08:37:49;;;;;;;;;;;26.00;41.10;;;;;;5023465;28;19929;-69
2022/08/12 08:43:00;;;;;;;;;;;26.20;40.70;;;;;;5028605;28;20020;-71
2022/08/12 08:45:27;;;;;;;;;;;26.30;40.10;;;;;;5028209;28;19940;-70
2022/08/12 08:47:54;;;;;;;;;;;26.40;38.40;;;;;;5031758;28;19930;-68
2022/08/12 08:50:21;;;;;;;;;;;26.50;38.10;;;;;;5026727;28;19929;-68
2022/08/12 08:52:49;;;;;;;;;;;26.50;37.40;;;;;;5032315;28;19933;-69
2022/08/12 08:55:16;;;;;;;;;;;26.60;37.00;;;;;;5023376;28;20310;-68
2022/08/12 08:57:43;;;;;;;;;;;26.70;37.00;;;;;;5028411;28;19932;-69
2022/08/12 09:00:12;;;;;;;;;;;26.90;36.70;;;;;;5013777;28;20020;-69
2022/08/12 09:02:40;;;;;;;;;;;27.00;36.00;;;;;;5026888;28;19929;-69
2022/08/12 09:05:07;;;;;;;;;;;27.10;35.80;;;;;;5024207;28;19952;-68
2022/08/12 09:07:42;;;;;;;;;;;27.10;35.60;;;;;;5030472;28;19924;-69
2022/08/12 09:10:10;;;;;;;;;;;27.20;35.70;;;;;;5022542;28;19925;-69
2022/08/12 09:15:22;;;;;;;;;;;27.60;35.90;;;;;;5018265;28;19960;-69
2022/08/12 09:17:54;;;;;;;;;;;27.60;35.90;;;;;;5016827;28;19972;-68
2022/08/12 09:20:22;;;;;;;;;;;27.60;36.40;;;;;;5023876;28;20019;-68
2022/08/12 09:22:49;;;;;;;;;;;27.70;35.40;;;;;;5025254;28;19975;-69
2022/08/12 09:25:17;;;;;;;;;;;27.80;35.30;;;;;;5019053;28;20460;-69
2022/08/12 09:27:45;;;;;;;;;;;27.90;35.40;;;;;;5019003;28;19992;-68
2022/08/12 09:30:14;;;;;;;;;;;28.00;35.20;;;;;;5025368;28;19925;-68
2022/08/12 09:32:42;;;;;;;;;;;28.10;35.40;;;;;;5025443;28;19931;-68
2022/08/12 09:35:09;;;;;;;;;;;28.20;35.30;;;;;;5026096;28;19935;-68
2022/08/12 09:37:36;;;;;;;;;;;28.30;35.00;;;;;;5012582;28;19934;-67
2022/08/12 09:40:03;;;;;;;;;;;28.30;35.20;;;;;;5023257;28;20306;-68
2022/08/12 09:45:22;;;;;;;;;;;28.50;33.70;;;;;;5020430;28;20055;-68
2022/08/12 09:47:49;;;;;;;;;;;28.60;33.20;;;;;;5014386;28;19925;-70
2022/08/12 09:50:16;;;;;;;;;;;28.60;33.30;;;;;;5018997;28;20302;-69
2022/08/12 09:52:44;;;;;;;;;;;28.70;33.20;;;;;;5017064;28;19929;-69
2022/08/12 09:55:11;;;;;;;;;;;28.70;33.50;;;;;;5020625;28;19936;-68
2022/08/12 09:57:39;;;;;;;;;;;28.80;33.20;;;;;;5017432;28;19925;-69
2022/08/12 10:00:07;;;;;;;;;;;28.90;33.80;;;;;;5025489;28;19980;-69
2022/08/12 10:02:39;;;;;;;;;;;28.90;33.30;;;;;;5019904;28;19931;-69
2022/08/12 10:05:08;;;;;;;;;;;29.10;33.00;;;;;;5021111;28;19932;-69
2022/08/12 10:07:35;;;;;;;;;;;29.10;32.20;;;;;;5018065;28;20016;-69
2022/08/12 10:10:01;;;;;;;;;;;29.20;32.20;;;;;;5025265;28;20284;-67
2022/08/12 10:15:23;;;;;;;;;;;29.40;32.20;;;;;;4992978;28;19930;-68
2022/08/12 10:17:52;;;;;;;;;;;29.40;31.90;;;;;;5022969;28;19925;-67
2022/08/12 10:20:18;;;;;;;;;;;29.50;32.00;;;;;;5024257;28;19936;-68
2022/08/12 10:22:56;;;;;;;;;;;29.60;31.70;;;;;;5026942;28;19929;-68
2022/08/12 10:30:53;;;;;;;;;;;29.70;31.00;;;;;;5024756;28;20011;-68
2022/08/12 10:33:20;;;;;;;;;;;29.80;30.80;;;;;;5024584;28;19926;-68
2022/08/12 10:35:46;;;;;;;;;;;29.80;30.70;;;;;;5029569;28;20065;-68
2022/08/12 10:38:14;;;;;;;;;;;29.90;30.40;;;;;;5026095;28;19925;-68
2022/08/12 10:46:07;;;;;;;;;;;30.00;30.80;;;;;;5024187;28;20020;-67
2022/08/12 10:48:34;;;;;;;;;;;30.00;30.10;;;;;;5027485;28;20386;-68
2022/08/12 10:51:02;;;;;;;;;;;30.00;30.40;;;;;;5028917;28;19925;-67
2022/08/12 10:53:29;;;;;;;;;;;30.10;30.30;;;;;;5023605;28;19932;-67
2022/08/12 10:55:56;;;;;;;;;;;30.20;30.10;;;;;;5025958;28;20137;-68
2022/08/12 10:58:23;;;;;;;;;;;30.20;29.90;;;;;;5024322;28;19925;-69
2022/08/12 11:00:50;;;;;;;;;;;30.30;29.90;;;;;;5017719;28;19925;-66
2022/08/12 11:03:20;;;;;;;;;;;30.40;29.70;;;;;;5023967;28;19925;-69
2022/08/12 11:05:47;;;;;;;;;;;30.40;29.50;;;;;;5025353;28;19925;-68
2022/08/12 11:08:13;;;;;;;;;;;30.50;30.00;;;;;;5019088;28;20382;-68
2022/08/12 11:10:40;;;;;;;;;;;30.50;29.90;;;;;;5027003;28;19968;-68
2022/08/12 11:13:07;;;;;;;;;;;30.50;29.70;;;;;;5019720;28;20375;-68
2022/08/12 11:15:34;;;;;;;;;;;30.40;29.70;;;;;;5018258;28;20067;-67
2022/08/12 11:18:00;;;;;;;;;;;30.50;29.50;;;;;;5024235;28;19931;-68
2022/08/12 11:20:30;;;;;;;;;;;30.50;29.40;;;;;;5027146;28;20540;-67
2022/08/12 11:22:57;;;;;;;;;;;30.60;29.40;;;;;;5023856;28;20002;-68
2022/08/12 11:25:24;;;;;;;;;;;30.50;29.10;;;;;;5023936;28;20283;-67
2022/08/12 11:27:50;;;;;;;;;;;30.50;29.30;;;;;;5013865;28;20417;-68
2022/08/12 11:30:17;;;;;;;;;;;30.50;29.70;;;;;;5021952;28;19925;-67
2022/08/12 11:32:44;;;;;;;;;;;30.50;29.50;;;;;;5021283;28;19933;-67
2022/08/12 11:35:11;;;;;;;;;;;30.50;29.90;;;;;;5016197;28;19925;-67
2022/08/12 11:37:39;;;;;;;;;;;30.60;29.40;;;;;;5021415;28;20309;-67
2022/08/12 11:40:07;;;;;;;;;;;30.70;29.00;;;;;;5023761;28;19933;-66
2022/08/12 11:42:34;;;;;;;;;;;30.60;28.50;;;;;;5041462;28;20016;-69
2022/08/12 11:45:01;;;;;;;;;;;30.60;28.40;;;;;;5026997;28;19976;-67
2022/08/12 11:47:28;;;;;;;;;;;30.60;29.50;;;;;;5031679;28;19932;-67
2022/08/12 11:49:54;;;;;;;;;;;30.70;29.20;;;;;;5020716;28;19933;-68
2022/08/12 11:52:21;;;;;;;;;;;30.70;29.00;;;;;;5024921;28;19933;-66
2022/08/12 11:54:49;;;;;;;;;;;30.80;29.30;;;;;;5025876;28;19932;-67
2022/08/12 11:57:16;;;;;;;;;;;30.60;28.60;;;;;;5018291;28;19929;-67
2022/08/12 11:59:43;;;;;;;;;;;30.50;28.60;;;;;;5015505;28;19933;-68
2022/08/12 12:02:10;;;;;;;;;;;30.50;29.10;;;;;;5025109;28;19976;-68
2022/08/12 12:04:36;;;;;;;;;;;30.40;29.00;;;;;;5030786;28;20330;-67
2022/08/12 12:07:03;;;;;;;;;;;30.40;28.80;;;;;;5026182;28;19960;-66
2022/08/12 12:09:30;;;;;;;;;;;30.50;29.00;;;;;;5021994;28;20020;-65
2022/08/12 12:11:59;;;;;;;;;;;30.40;28.90;;;;;;5023047;28;20295;-67
2022/08/12 12:14:26;;;;;;;;;;;30.20;28.60;;;;;;5024451;28;19935;-66
2022/08/12 12:16:53;;;;;;;;;;;30.00;28.80;;;;;;5017737;28;19940;-66
2022/08/12 12:19:19;;;;;;;;;;;29.90;29.20;;;;;;5023605;28;19929;-67
2022/08/12 12:21:46;;;;;;;;;;;30.00;29.00;;;;;;5023963;28;19929;-66
2022/08/12 12:24:13;;;;;;;;;;;29.90;30.40;;;;;;5025253;28;19941;-66
2022/08/12 12:26:39;;;;;;;;;;;29.90;29.00;;;;;;5023181;28;20343;-67
2022/08/12 12:29:08;;;;;;;;;;;29.80;28.90;;;;;;5027853;28;19925;-66
2022/08/12 12:31:34;;;;;;;;;;;29.80;28.40;;;;;;5022639;28;19928;-67
2022/08/12 12:34:01;;;;;;;;;;;29.90;29.00;;;;;;5028046;28;19929;-65
2022/08/12 12:36:28;;;;;;;;;;;29.90;31.10;;;;;;5023201;28;19936;-66
2022/08/12 12:38:55;;;;;;;;;;;29.80;29.60;;;;;;5020790;28;19955;-66
2022/08/12 12:41:21;;;;;;;;;;;29.80;28.90;;;;;;5030606;28;20469;-66
2022/08/12 12:43:48;;;;;;;;;;;29.90;28.40;;;;;;5030025;28;19932;-68
2022/08/12 12:46:17;;;;;;;;;;;30.00;27.80;;;;;;5023734;28;19925;-68
2022/08/12 12:48:43;;;;;;;;;;;29.90;28.30;;;;;;5020822;28;19960;-66
2022/08/12 12:51:16;;;;;;;;;;;29.90;28.80;;;;;;5023472;28;19935;-67
2022/08/12 12:53:44;;;;;;;;;;;29.90;28.50;;;;;;5016596;28;19929;-67
2022/08/12 12:56:14;;;;;;;;;;;29.80;28.20;;;;;;5019226;28;19940;-67
2022/08/12 12:58:41;;;;;;;;;;;29.70;28.00;;;;;;5018703;28;20406;-66
2022/08/12 13:01:09;;;;;;;;;;;29.60;28.30;;;;;;5020846;28;19925;-65
2022/08/12 13:03:37;;;;;;;;;;;29.60;28.40;;;;;;5021308;28;19928;-67
2022/08/12 13:06:04;;;;;;;;;;;29.60;28.40;;;;;;5023211;28;19940;-67
2022/08/12 13:08:31;;;;;;;;;;;29.60;28.70;;;;;;5027290;28;19956;-66
2022/08/12 13:11:00;;;;;;;;;;;29.80;29.30;;;;;;5022354;28;20319;-67
2022/08/12 13:13:28;;;;;;;;;;;29.90;29.00;;;;;;5025870;28;20397;-67
2022/08/12 13:15:56;;;;;;;;;;;29.90;29.90;;;;;;5024474;28;19998;-67
2022/08/12 13:18:24;;;;;;;;;;;29.90;29.70;;;;;;5021369;28;19932;-66
2022/08/12 13:20:52;;;;;;;;;;;29.80;29.20;;;;;;5027100;28;19925;-67
2022/08/12 13:23:19;;;;;;;;;;;29.80;28.90;;;;;;5031327;28;19925;-67
2022/08/12 13:25:45;;;;;;;;;;;29.60;28.90;;;;;;5016900;28;20286;-66
2022/08/12 13:28:21;;;;;;;;;;;29.60;28.50;;;;;;5017957;28;19933;-66
2022/08/12 13:30:48;;;;;;;;;;;29.60;29.30;;;;;;5019937;28;19938;-66
2022/08/12 13:33:15;;;;;;;;;;;29.50;29.30;;;;;;5021192;28;19929;-68
2022/08/12 13:35:42;;;;;;;;;;;29.50;29.00;;;;;;5024106;28;20299;-66
2022/08/12 13:38:10;;;;;;;;;;;29.60;29.10;;;;;;5023378;28;20011;-67
2022/08/12 13:40:39;;;;;;;;;;;29.80;28.70;;;;;;5023791;28;19932;-66
2022/08/12 13:43:06;;;;;;;;;;;29.80;29.60;;;;;;5023477;28;19925;-65
2022/08/12 13:45:33;;;;;;;;;;;29.80;29.60;;;;;;5022228;28;19979;-67
2022/08/12 13:48:01;;;;;;;;;;;29.90;28.80;;;;;;5029880;28;19932;-67
2022/08/12 13:50:31;;;;;;;;;;;29.90;28.60;;;;;;5020038;28;19933;-65
2022/08/12 13:52:58;;;;;;;;;;;29.90;28.90;;;;;;5023200;28;19952;-67
2022/08/12 13:55:27;;;;;;;;;;;29.80;28.30;;;;;;5027740;28;20020;-66
2022/08/12 13:57:54;;;;;;;;;;;29.80;29.10;;;;;;5028180;28;19955;-66
2022/08/12 14:00:20;;;;;;;;;;;29.80;28.80;;;;;;5028494;28;19925;-67
2022/08/12 14:02:48;;;;;;;;;;;29.70;29.10;;;;;;5026434;28;19933;-66
2022/08/12 14:05:16;;;;;;;;;;;29.70;28.80;;;;;;5030131;28;19936;-67
2022/08/12 14:07:53;;;;;;;;;;;29.70;28.50;;;;;;5030295;28;19925;-65
2022/08/12 14:10:39;;;;;;;;;;;29.80;28.90;;;;;;5025969;28;19987;-66
2022/08/12 14:13:08;;;;;;;;;;;29.90;29.70;;;;;;5023618;28;19980;-67
2022/08/12 14:15:35;;;;;;;;;;;29.80;29.80;;;;;;5028368;28;19929;-67
2022/08/12 14:18:09;;;;;;;;;;;29.60;31.20;;;;;;5028342;28;19955;-66
2022/08/12 14:20:36;;;;;;;;;;;29.60;30.20;;;;;;5019118;28;19926;-66
2022/08/12 14:23:03;;;;;;;;;;;29.60;29.40;;;;;;5026829;28;19928;-66
2022/08/12 14:25:30;;;;;;;;;;;29.60;28.50;;;;;;5029171;28;19925;-67
2022/08/12 14:28:02;;;;;;;;;;;29.60;28.10;;;;;;5028068;28;19925;-65
2022/08/12 14:30:30;;;;;;;;;;;29.80;28.00;;;;;;5031124;28;19925;-66
2022/08/12 14:33:01;;;;;;;;;;;29.70;29.40;;;;;;5029035;28;19972;-67
2022/08/12 14:35:29;;;;;;;;;;;29.60;29.90;;;;;;5020918;28;19971;-65
2022/08/12 14:37:56;;;;;;;;;;;29.60;30.20;;;;;;5030328;28;19929;-68
2022/08/12 14:40:22;;;;;;;;;;;29.50;29.70;;;;;;5019875;28;20346;-65
2022/08/12 14:42:49;;;;;;;;;;;29.50;29.60;;;;;;5023008;28;20141;-66
2022/08/12 14:45:16;;;;;;;;;;;29.50;29.20;;;;;;5027742;28;19933;-68
2022/08/12 14:47:50;;;;;;;;;;;29.40;29.60;;;;;;5019063;28;19948;-64
2022/08/12 14:50:17;;;;;;;;;;;29.40;29.40;;;;;;5028833;28;20025;-67
2022/08/12 14:52:45;;;;;;;;;;;29.50;29.10;;;;;;5026695;28;20333;-65
2022/08/12 14:55:13;;;;;;;;;;;29.50;28.90;;;;;;5026769;28;19926;-64
2022/08/12 14:57:50;;;;;;;;;;;29.50;28.90;;;;;;5026121;28;20298;-65
2022/08/12 15:03:03;;;;;;;;;;;29.50;28.80;;;;;;5014313;28;19925;-66
2022/08/12 15:05:37;;;;;;;;;;;29.50;28.40;;;;;;5038313;28;19972;-67
2022/08/12 15:08:10;;;;;;;;;;;29.50;28.50;;;;;;5025538;28;19957;-67
2022/08/12 15:10:38;;;;;;;;;;;29.40;28.30;;;;;;5029066;28;19925;-65
2022/08/12 15:13:05;;;;;;;;;;;29.40;28.40;;;;;;5029149;28;20033;-66
2022/08/12 15:15:32;;;;;;;;;;;29.30;28.50;;;;;;5034019;28;19933;-66
2022/08/12 15:17:59;;;;;;;;;;;29.20;28.80;;;;;;5027272;28;19925;-66
2022/08/12 15:20:28;;;;;;;;;;;29.20;29.00;;;;;;5019071;28;19925;-66
2022/08/12 15:22:55;;;;;;;;;;;29.10;28.60;;;;;;5022692;28;19940;-67
2022/08/12 15:25:22;;;;;;;;;;;29.20;28.40;;;;;;5018268;28;20042;-66
2022/08/12 15:27:51;;;;;;;;;;;29.30;28.60;;;;;;5028358;28;19933;-66
2022/08/12 15:30:18;;;;;;;;;;;29.30;28.70;;;;;;5033810;28;19928;-67
2022/08/12 15:32:46;;;;;;;;;;;29.40;29.10;;;;;;5032571;28;19933;-67
2022/08/12 15:35:13;;;;;;;;;;;29.40;29.80;;;;;;5031212;28;19972;-66
2022/08/12 15:37:41;;;;;;;;;;;29.30;30.00;;;;;;5025101;28;20115;-67
2022/08/12 15:40:10;;;;;;;;;;;29.30;30.00;;;;;;5031317;28;19939;-66
2022/08/12 15:42:37;;;;;;;;;;;29.30;29.30;;;;;;5030477;28;20375;-66
2022/08/12 15:45:04;;;;;;;;;;;29.30;29.10;;;;;;5033344;28;20306;-67
2022/08/12 15:47:31;;;;;;;;;;;29.20;29.10;;;;;;5029094;28;19924;-65
2022/08/12 15:49:58;;;;;;;;;;;29.10;29.30;;;;;;5030705;28;19925;-67
2022/08/12 15:52:26;;;;;;;;;;;29.10;29.80;;;;;;5019587;28;19933;-67
2022/08/12 15:54:54;;;;;;;;;;;29.00;29.60;;;;;;5023202;28;19934;-66
2022/08/12 15:57:22;;;;;;;;;;;28.90;29.60;;;;;;5025779;28;19995;-66
2022/08/12 15:59:49;;;;;;;;;;;28.80;29.70;;;;;;5024928;28;19933;-67
2022/08/12 16:02:17;;;;;;;;;;;28.70;29.50;;;;;;5023493;28;19937;-64
2022/08/12 16:04:43;;;;;;;;;;;28.60;29.90;;;;;;5023533;28;19925;-65
2022/08/12 16:07:10;;;;;;;;;;;28.60;29.80;;;;;;5022056;28;19925;-65
2022/08/12 16:09:37;;;;;;;;;;;28.50;29.70;;;;;;5030757;28;19925;-63
2022/08/12 16:12:06;;;;;;;;;;;28.50;29.90;;;;;;5026879;28;19932;-64
2022/08/12 16:14:33;;;;;;;;;;;28.60;29.60;;;;;;5027216;28;20321;-64
2022/08/12 16:17:00;;;;;;;;;;;28.60;30.70;;;;;;5031872;28;20044;-64